Stolt Jade — ZCSQ4 — position and weather

sailwx.info

Track history (hours):
 
Tides and Currents Weather Stations Pressure Air Temp Water Temp Dewpoint Dewpoint Depression Visibility Wind Speed Wind Dir Waves Ship Positions

Stolt Jade

Last reported at 2014-Nov-21 10:29 UTC. Time now 2014-Nov-26 03:47 UTC.
Position N 01°09' E 103°42'.

Length 175 m; draft 8 m.

Type: Ship (hazmat cat B). MMSI: 319439000.

Date/timePositionNaut miles runAvg speedWind from/ knotsBaromVisibWave heightAir tempDewpointWater temp
2014-Nov-21 10:29N 01°09' E 103°42'1112.2
2014-Nov-21 09:33N 01°13' E 103°53'1413.5
2014-Nov-21 08:34N 01°16' E 104°06'10 0.3
2014-Nov-20 00:12N 01°07' E 104°10'12 7.0
2014-Nov-19 22:33N 01°18' E 104°06'10 9.7
2014-Nov-19 21:33N 01°24' E 103°58'2 0.1
2014-Nov-19 06:24N 01°24' E 104°00'810.0
2014-Nov-19 05:33N 01°20' E 104°07'0 0.1
2014-Nov-19 04:31N 01°19' E 104°07'0 0.1
2014-Nov-19 03:12N 01°19' E 104°07'0 0.0
2014-Nov-19 01:24N 01°19' E 104°07'0 0.1
2014-Nov-18 22:30N 01°19' E 104°07'0 0.0
2014-Nov-18 20:06N 01°19' E 104°07'0 0.1
2014-Nov-18 18:33N 01°19' E 104°07'0 0.0
2014-Nov-18 17:30N 01°19' E 104°07'0 0.0
2014-Nov-18 15:18N 01°19' E 104°07'0 0.0
2014-Nov-18 07:09N 01°19' E 104°07'0 0.2
2014-Nov-18 06:33N 01°20' E 104°07'5 0.2
2014-Nov-17 03:28N 01°15' E 104°05'1313.7
2014-Nov-17 02:32N 01°12' E 103°52'9 9.3
2014-Nov-17 01:33N 01°17' E 103°45'1 1.1
2014-Nov-17 00:33N 01°18' E 103°44'0 0.0
2014-Nov-16 23:33N 01°18' E 103°44'0 0.0
2014-Nov-16 22:33N 01°18' E 103°44'0 0.0
2014-Nov-16 21:33N 01°18' E 103°44'0 0.0
2014-Nov-16 20:33N 01°18' E 103°44'0 0.0
2014-Nov-16 19:33N 01°18' E 103°44'0 0.0
2014-Nov-16 18:33N 01°18' E 103°44'0 0.0
2014-Nov-16 17:33N 01°18' E 103°44'0 0.0
2014-Nov-16 16:33N 01°18' E 103°44'0 0.0
2014-Nov-16 15:33N 01°18' E 103°44'0 0.0
2014-Nov-16 14:34N 01°18' E 103°44'0 0.1
2014-Nov-16 13:33N 01°18' E 103°44'0 0.1
2014-Nov-16 12:33N 01°18' E 103°44'0 0.0
2014-Nov-16 11:33N 01°18' E 103°44'0 0.0
2014-Nov-16 10:33N 01°18' E 103°44'0 0.0
2014-Nov-16 09:33N 01°18' E 103°44'0 0.0
2014-Nov-16 08:33N 01°18' E 103°44'0 0.0
2014-Nov-16 07:33N 01°18' E 103°44'0 0.0
2014-Nov-16 06:33N 01°18' E 103°44'0 0.0
2014-Nov-16 05:33N 01°18' E 103°44'0 0.0
2014-Nov-16 04:33N 01°18' E 103°44'0 0.0
2014-Nov-16 03:33N 01°18' E 103°44'0 0.0
2014-Nov-16 02:33N 01°18' E 103°44'0 0.0
2014-Nov-16 01:33N 01°18' E 103°44'0 0.0
2014-Nov-16 00:33N 01°18' E 103°44'0 0.1
2014-Nov-15 23:33N 01°18' E 103°44'2 0.1
2014-Nov-15 07:33N 01°16' E 103°44'6 5.5
2014-Nov-15 06:32N 01°11' E 103°42'0 0.0
2014-Nov-15 00:31N 01°11' E 103°42'0 0.0
2014-Nov-14 04:32N 01°11' E 103°42'5 0.2
2014-Nov-13 08:04N 01°15' E 103°43'2 3.0
2014-Nov-13 07:32N 01°14' E 103°42'3 0.6
2014-Nov-13 03:15N 01°13' E 103°40'5 6.9
2014-Nov-13 02:30N 01°09' E 103°43'7 7.0
2014-Nov-13 01:33N 01°11' E 103°49'1010.3
2014-Nov-13 00:33N 01°15' E 103°58'1312.6
2014-Nov-12 23:33N 01°17' E 104°11'  
Track history (hours):
 
Tides and Currents Weather Stations Pressure Air Temp Water Temp Dewpoint Dewpoint Depression Visibility Wind Speed Wind Dir Waves Ship Positions

Stolt Jade

Last reported at 2014-Nov-21 10:29 UTC. Time now 2014-Nov-26 03:47 UTC.
Position N 01°09' E 103°42'.

Length 175 m; draft 8 m.

Type: Ship (hazmat cat B). MMSI: 319439000.

Date/timePositionNaut miles runAvg speedWind from/ knotsBaromVisibWave heightAir tempDewpointWater temp
2014-Nov-21 10:29N 01°09' E 103°42'1112.2
2014-Nov-21 09:33N 01°13' E 103°53'1413.5
2014-Nov-21 08:34N 01°16' E 104°06'10 0.3
2014-Nov-20 00:12N 01°07' E 104°10'12 7.0
2014-Nov-19 22:33N 01°18' E 104°06'10 9.7
2014-Nov-19 21:33N 01°24' E 103°58'2 0.1
2014-Nov-19 06:24N 01°24' E 104°00'810.0
2014-Nov-19 05:33N 01°20' E 104°07'0 0.1
2014-Nov-19 04:31N 01°19' E 104°07'0 0.1
2014-Nov-19 03:12N 01°19' E 104°07'0 0.0
2014-Nov-19 01:24N 01°19' E 104°07'0 0.1
2014-Nov-18 22:30N 01°19' E 104°07'0 0.0
2014-Nov-18 20:06N 01°19' E 104°07'0 0.1
2014-Nov-18 18:33N 01°19' E 104°07'0 0.0
2014-Nov-18 17:30N 01°19' E 104°07'0 0.0
2014-Nov-18 15:18N 01°19' E 104°07'0 0.0
2014-Nov-18 07:09N 01°19' E 104°07'0 0.2
2014-Nov-18 06:33N 01°20' E 104°07'5 0.2
2014-Nov-17 03:28N 01°15' E 104°05'1313.7
2014-Nov-17 02:32N 01°12' E 103°52'9 9.3
2014-Nov-17 01:33N 01°17' E 103°45'1 1.1
2014-Nov-17 00:33N 01°18' E 103°44'0 0.0
2014-Nov-16 23:33N 01°18' E 103°44'0 0.0
2014-Nov-16 22:33N 01°18' E 103°44'0 0.0
2014-Nov-16 21:33N 01°18' E 103°44'0 0.0
2014-Nov-16 20:33N 01°18' E 103°44'0 0.0
2014-Nov-16 19:33N 01°18' E 103°44'0 0.0
2014-Nov-16 18:33N 01°18' E 103°44'0 0.0
2014-Nov-16 17:33N 01°18' E 103°44'0 0.0
2014-Nov-16 16:33N 01°18' E 103°44'0 0.0
2014-Nov-16 15:33N 01°18' E 103°44'0 0.0
2014-Nov-16 14:34N 01°18' E 103°44'0 0.1
2014-Nov-16 13:33N 01°18' E 103°44'0 0.1
2014-Nov-16 12:33N 01°18' E 103°44'0 0.0
2014-Nov-16 11:33N 01°18' E 103°44'0 0.0
2014-Nov-16 10:33N 01°18' E 103°44'0 0.0
2014-Nov-16 09:33N 01°18' E 103°44'0 0.0
2014-Nov-16 08:33N 01°18' E 103°44'0 0.0
2014-Nov-16 07:33N 01°18' E 103°44'0 0.0
2014-Nov-16 06:33N 01°18' E 103°44'0 0.0
2014-Nov-16 05:33N 01°18' E 103°44'0 0.0
2014-Nov-16 04:33N 01°18' E 103°44'0 0.0
2014-Nov-16 03:33N 01°18' E 103°44'0 0.0
2014-Nov-16 02:33N 01°18' E 103°44'0 0.0
2014-Nov-16 01:33N 01°18' E 103°44'0 0.0
2014-Nov-16 00:33N 01°18' E 103°44'0 0.1
2014-Nov-15 23:33N 01°18' E 103°44'2 0.1
2014-Nov-15 07:33N 01°16' E 103°44'6 5.5
2014-Nov-15 06:32N 01°11' E 103°42'0 0.0
2014-Nov-15 00:31N 01°11' E 103°42'0 0.0
2014-Nov-14 04:32N 01°11' E 103°42'5 0.2
2014-Nov-13 08:04N 01°15' E 103°43'2 3.0
2014-Nov-13 07:32N 01°14' E 103°42'3 0.6
2014-Nov-13 03:15N 01°13' E 103°40'5 6.9
2014-Nov-13 02:30N 01°09' E 103°43'7 7.0
2014-Nov-13 01:33N 01°11' E 103°49'1010.3
2014-Nov-13 00:33N 01°15' E 103°58'1312.6
2014-Nov-12 23:33N 01°17' E 104°11'  

Dump ship's entire track history